Anandale, Louisiana
Current Conditions -  °F | °C
As of 8:53 PM on Saturday 22 Nov 2014 (Local Time) from KAEX Reporting Station
Light Rain Light Rain  
Wind Chill: 18°   Ceiling: 1600
Heat Index: 18°   Visibility: 10mi
Dew Point: 15°   Wind: 16mph
Humidity: 84%   Direction: 130°SE
Pressure: 29.88"   Gusts: NA
Location:  31.2655°N, 92.4705°W
Report Text: KAEX 230253Z 13014KT 10SM -RA OVC016 18/15 A2988 RMK AO2 RAB33 SLP121 P0000 60000 T01780150 56012
Loading
Personal Weather Stations






























Interactive Weather Map New forecast layout! Learn more

10-Day Weather Forecast

Advertisements
Track Severe Weather on mobile